createdAt,value
2018-12-21T00:01:23.870Z,99502.00
2018-12-21T00:03:56.346Z,99504.00
2018-12-21T00:06:26.966Z,99498.00
2018-12-21T00:08:58.283Z,99503.00
2018-12-21T00:11:30.000Z,99496.00
2018-12-21T00:14:03.097Z,99497.00
2018-12-21T00:16:36.824Z,99493.00
2018-12-21T00:19:07.062Z,99497.00
2018-12-21T00:21:37.605Z,99490.00
2018-12-21T00:24:09.197Z,99491.00
2018-12-21T00:26:42.344Z,99487.00
2018-12-21T00:29:13.649Z,99490.00
2018-12-21T00:31:49.473Z,99479.00
2018-12-21T00:34:25.968Z,99475.00
2018-12-21T00:44:05.614Z,99468.00
2018-12-21T00:46:44.158Z,99465.00
2018-12-21T00:49:14.588Z,99461.00
2018-12-21T00:51:47.020Z,99472.00
2018-12-21T00:54:20.299Z,99468.00
2018-12-21T00:56:52.407Z,99477.00
2018-12-21T00:59:24.332Z,99471.00
2018-12-21T01:01:55.286Z,99465.00
2018-12-21T01:04:26.013Z,99464.00
2018-12-21T01:06:58.003Z,99470.00
2018-12-21T01:09:30.376Z,99469.00
2018-12-21T01:12:01.348Z,99469.00
2018-12-21T01:14:33.420Z,99474.00
2018-12-21T01:17:03.314Z,99479.00
2018-12-21T01:19:34.451Z,99472.00
2018-12-21T01:22:06.313Z,99487.00
2018-12-21T01:24:37.779Z,99481.00
2018-12-21T01:27:09.871Z,99480.00
2018-12-21T01:29:42.518Z,99482.00
2018-12-21T01:32:13.308Z,99488.00
2018-12-21T01:34:44.967Z,99481.00
2018-12-21T01:37:16.613Z,99487.00
2018-12-21T01:39:48.368Z,99486.00
2018-12-21T01:42:19.366Z,99480.00
2018-12-21T01:44:49.912Z,99486.00
2018-12-21T01:47:22.251Z,99480.00
2018-12-21T01:49:52.774Z,99488.00
2018-12-21T01:52:23.292Z,99484.00
2018-12-21T01:54:54.342Z,99489.00
2018-12-21T01:57:26.209Z,99482.00
2018-12-21T01:59:58.298Z,99475.00
2018-12-21T02:02:29.472Z,99475.00
2018-12-21T02:05:00.933Z,99482.00
2018-12-21T02:07:31.257Z,99471.00
2018-12-21T02:10:02.371Z,99461.00
2018-12-21T02:12:33.582Z,99469.00
2018-12-21T02:15:04.741Z,99451.00
2018-12-21T02:17:35.376Z,99452.00
2018-12-21T02:20:06.614Z,99445.00
2018-12-21T02:22:36.284Z,99445.00
2018-12-21T02:25:08.624Z,99441.00
2018-12-21T02:27:39.854Z,99440.00
2018-12-21T02:30:11.118Z,99441.00
2018-12-21T02:32:41.905Z,99437.00
2018-12-21T02:35:12.661Z,99438.00
2018-12-21T02:37:43.154Z,99431.00
2018-12-21T02:40:13.669Z,99437.00
2018-12-21T02:42:44.325Z,99435.00
2018-12-21T02:45:17.762Z,99439.00
2018-12-21T02:47:48.488Z,99431.00
2018-12-21T02:50:19.448Z,99438.00
2018-12-21T02:52:52.607Z,99438.00
2018-12-21T02:55:23.119Z,99424.00
2018-12-21T02:57:54.306Z,99426.00
2018-12-21T03:00:27.179Z,99422.00
2018-12-21T03:02:58.352Z,99428.00
2018-12-21T03:05:33.215Z,99421.00
2018-12-21T03:08:04.103Z,99416.00
2018-12-21T03:10:35.053Z,99417.00
2018-12-21T03:13:07.132Z,99420.00
2018-12-21T03:15:38.858Z,99411.00
2018-12-21T03:18:09.599Z,99412.00
2018-12-21T03:20:39.979Z,99401.00
2018-12-21T03:23:12.934Z,99402.00
2018-12-21T03:25:43.834Z,99405.00
2018-12-21T03:28:14.892Z,99402.00
2018-12-21T03:30:46.787Z,99400.00
2018-12-21T03:33:17.826Z,99401.00
2018-12-21T03:35:49.620Z,99395.00
2018-12-21T03:38:20.607Z,99397.00
2018-12-21T03:40:54.171Z,99395.00
2018-12-21T03:43:28.789Z,99392.00
2018-12-21T03:46:00.276Z,99392.00
2018-12-21T03:48:31.344Z,99389.00
2018-12-21T03:51:03.582Z,99390.00
2018-12-21T03:53:34.428Z,99387.00
2018-12-21T03:56:07.705Z,99388.00
2018-12-21T03:58:40.698Z,99378.00
2018-12-21T04:01:12.450Z,99374.00
2018-12-21T04:03:44.687Z,99375.00
2018-12-21T04:06:17.261Z,99373.00
2018-12-21T04:08:47.757Z,99370.00
2018-12-21T04:11:20.100Z,99372.00
2018-12-21T04:13:52.328Z,99363.00
2018-12-21T04:16:23.179Z,99364.00
2018-12-21T04:18:54.161Z,99349.00
2018-12-21T04:21:27.343Z,99352.00
2018-12-21T04:23:59.358Z,99348.00
2018-12-21T04:26:31.464Z,99335.00
2018-12-21T04:29:02.367Z,99347.00
2018-12-21T04:31:34.563Z,99340.00
2018-12-21T04:34:06.644Z,99350.00
2018-12-21T04:36:41.966Z,99338.00
2018-12-21T04:39:14.338Z,99341.00
2018-12-21T04:41:45.724Z,99335.00
2018-12-21T04:44:17.794Z,99340.00
2018-12-21T04:46:49.048Z,99329.00
2018-12-21T04:52:10.689Z,99340.00
2018-12-21T04:54:41.922Z,99349.00
2018-12-21T04:57:14.046Z,99343.00
2018-12-21T04:59:47.859Z,99341.00
2018-12-21T05:02:19.302Z,99328.00
2018-12-21T05:04:51.185Z,99339.00
2018-12-21T05:07:24.286Z,99330.00
2018-12-21T05:09:58.402Z,99336.00
2018-12-21T05:12:33.047Z,99338.00
2018-12-21T05:15:04.101Z,99333.00
2018-12-21T05:17:34.410Z,99324.00
2018-12-21T05:20:05.548Z,99322.00
2018-12-21T05:22:35.524Z,99323.00
2018-12-21T05:25:05.596Z,99323.00
2018-12-21T05:27:36.033Z,99322.00
2018-12-21T05:30:08.748Z,99317.00
2018-12-21T05:32:39.397Z,99304.00
2018-12-21T05:35:11.330Z,99310.00
2018-12-21T05:37:44.751Z,99305.00
2018-12-21T05:40:14.831Z,99311.00
2018-12-21T05:42:48.017Z,99300.00
2018-12-21T05:45:21.239Z,99292.00
2018-12-21T05:47:53.672Z,99297.00
2018-12-21T05:50:29.078Z,99289.00
2018-12-21T05:53:00.889Z,99288.00
2018-12-21T05:55:31.434Z,99287.00
2018-12-21T05:58:01.185Z,99276.00
2018-12-21T06:00:32.320Z,99270.00
2018-12-21T06:03:02.687Z,99269.00
2018-12-21T06:05:33.321Z,99264.00
2018-12-21T06:08:03.302Z,99265.00
2018-12-21T06:10:35.888Z,99217.00
2018-12-21T06:13:06.063Z,99253.00
2018-12-21T06:15:36.045Z,99244.00
2018-12-21T06:18:05.768Z,99248.00
2018-12-21T06:20:35.790Z,99236.00
2018-12-21T06:23:09.603Z,99240.00
2018-12-21T06:25:41.827Z,99234.00
2018-12-21T06:28:13.950Z,99227.00
2018-12-21T06:30:45.893Z,99227.00
2018-12-21T06:33:16.297Z,99222.00
2018-12-21T06:35:48.590Z,99220.00
2018-12-21T06:38:20.129Z,99214.00
2018-12-21T06:40:51.684Z,99209.00
2018-12-21T06:43:23.417Z,99203.00
2018-12-21T06:45:54.599Z,99201.00
2018-12-21T06:48:27.119Z,99205.00
2018-12-21T06:51:01.203Z,99195.00
2018-12-21T06:53:32.124Z,99196.00
2018-12-21T06:56:02.437Z,99193.00
2018-12-21T06:58:33.495Z,99195.00
2018-12-21T07:01:04.827Z,99181.00
2018-12-21T07:03:37.039Z,99187.00
2018-12-21T07:06:09.573Z,99188.00
2018-12-21T07:08:41.412Z,99184.00
2018-12-21T07:11:11.988Z,99180.00
2018-12-21T07:13:46.162Z,99182.00
2018-12-21T07:16:16.791Z,99187.00
2018-12-21T07:18:47.852Z,99177.00
2018-12-21T07:21:18.623Z,99180.00
2018-12-21T07:23:49.021Z,99171.00
2018-12-21T07:26:20.012Z,99175.00
2018-12-21T07:28:51.526Z,99177.00
2018-12-21T07:31:22.420Z,99183.00
2018-12-21T07:33:52.974Z,99180.00
2018-12-21T07:36:23.105Z,99179.00
2018-12-21T07:38:54.322Z,99183.00
2018-12-21T07:41:25.071Z,99178.00
2018-12-21T07:43:54.565Z,99168.00
2018-12-21T07:46:25.940Z,99167.00
2018-12-21T07:48:56.625Z,99163.00
2018-12-21T07:51:28.694Z,99158.00
2018-12-21T07:53:59.937Z,99158.00
2018-12-21T07:56:31.404Z,99157.00
2018-12-21T07:59:02.492Z,99154.00
2018-12-21T08:01:33.621Z,99140.00
2018-12-21T08:04:03.888Z,99147.00
2018-12-21T08:06:33.770Z,99143.00
2018-12-21T08:09:06.137Z,99138.00
2018-12-21T08:11:36.956Z,99127.00
2018-12-21T08:14:07.447Z,99130.00
2018-12-21T08:16:38.416Z,99126.00
2018-12-21T08:19:08.739Z,99122.00
2018-12-21T08:21:39.249Z,99132.00
2018-12-21T08:24:09.545Z,99125.00
2018-12-21T08:26:40.400Z,99126.00
2018-12-21T08:29:11.494Z,99119.00
2018-12-21T08:31:43.588Z,99111.00
2018-12-21T08:34:14.272Z,99096.00
2018-12-21T08:36:44.305Z,99088.00
2018-12-21T08:39:14.963Z,99081.00
2018-12-21T08:41:46.724Z,99070.00
2018-12-21T08:44:16.604Z,99076.00
2018-12-21T08:46:47.211Z,99072.00
2018-12-21T08:49:17.550Z,99061.00
2018-12-21T08:51:47.472Z,99055.00
2018-12-21T08:54:18.282Z,99050.00
2018-12-21T08:56:48.439Z,99048.00
2018-12-21T08:59:18.232Z,99040.00
2018-12-21T09:01:48.802Z,99036.00
2018-12-21T09:04:20.687Z,99031.00
2018-12-21T09:06:51.913Z,99037.00
2018-12-21T09:09:22.236Z,99024.00
2018-12-21T09:11:52.263Z,99020.00
2018-12-21T09:14:22.681Z,99008.00
2018-12-21T09:16:52.798Z,98996.00
2018-12-21T09:19:23.644Z,98990.00
2018-12-21T09:21:53.568Z,98999.00
2018-12-21T09:24:24.051Z,98990.00
2018-12-21T09:26:55.861Z,98972.00
2018-12-21T09:29:28.132Z,98978.00
2018-12-21T09:32:05.045Z,98975.00
2018-12-21T09:34:31.419Z,98973.00
2018-12-21T09:37:01.981Z,98964.00
2018-12-21T09:39:33.783Z,98968.00
2018-12-21T09:42:04.091Z,98969.00
2018-12-21T09:44:41.281Z,98968.00
2018-12-21T09:47:11.253Z,98962.00
2018-12-21T09:49:42.314Z,98959.00
2018-12-21T09:52:13.823Z,98965.00
2018-12-21T09:54:44.926Z,98958.00
2018-12-21T09:57:15.253Z,98939.00
2018-12-21T09:59:45.085Z,98947.00
2018-12-21T10:02:16.255Z,98940.00
2018-12-21T10:04:46.164Z,98928.00
2018-12-21T10:07:16.380Z,98921.00
2018-12-21T10:09:48.395Z,98915.00
2018-12-21T10:12:26.012Z,98906.00
2018-12-21T10:14:56.942Z,98904.00
2018-12-21T10:17:27.678Z,98898.00
2018-12-21T10:19:57.842Z,98901.00
2018-12-21T10:22:27.989Z,98891.00
2018-12-21T10:24:58.745Z,98884.00
2018-12-21T10:27:28.644Z,98886.00
2018-12-21T10:29:58.556Z,98883.00
2018-12-21T10:32:28.581Z,98875.00
2018-12-21T10:34:59.371Z,98872.00
2018-12-21T10:37:29.234Z,98868.00
2018-12-21T10:39:59.934Z,98853.00
2018-12-21T10:42:30.157Z,98858.00
2018-12-21T10:45:00.123Z,98843.00
2018-12-21T10:47:30.241Z,98827.00
2018-12-21T10:50:00.293Z,98825.00
2018-12-21T10:52:30.431Z,98825.00
2018-12-21T10:55:02.745Z,98810.00
2018-12-21T10:57:32.697Z,98797.00
2018-12-21T11:00:02.716Z,98795.00
2018-12-21T11:02:34.615Z,98794.00
2018-12-21T11:05:06.559Z,98776.00
2018-12-21T11:07:37.107Z,98765.00
2018-12-21T11:10:11.092Z,98760.00
2018-12-21T11:12:41.513Z,98744.00
2018-12-21T11:15:11.657Z,98745.00
2018-12-21T11:17:43.983Z,98736.00
2018-12-21T11:20:13.617Z,98731.00
2018-12-21T11:22:43.654Z,98713.00
2018-12-21T11:25:15.465Z,98702.00
2018-12-21T11:27:46.040Z,98692.00
2018-12-21T11:30:15.884Z,98693.00
2018-12-21T11:32:46.042Z,98685.00
2018-12-21T11:35:16.422Z,98667.00
2018-12-21T11:37:46.640Z,98667.00
2018-12-21T11:40:16.546Z,98667.00
2018-12-21T11:42:46.887Z,98649.00
2018-12-21T11:45:17.785Z,98650.00
2018-12-21T11:47:48.268Z,98642.00
2018-12-21T11:50:18.102Z,98634.00
2018-12-21T11:52:47.748Z,98623.00
2018-12-21T11:55:17.469Z,98618.00
2018-12-21T11:57:47.710Z,98611.00
2018-12-21T12:00:17.398Z,98605.00
2018-12-21T12:02:47.414Z,98601.00
2018-12-21T12:05:17.420Z,98591.00
2018-12-21T12:07:48.245Z,98585.00
2018-12-21T12:10:19.614Z,98575.00
2018-12-21T12:12:49.183Z,98574.00
2018-12-21T12:15:20.474Z,98566.00
2018-12-21T12:17:50.358Z,98566.00
2018-12-21T12:20:19.908Z,98567.00
2018-12-21T12:22:50.758Z,98560.00
2018-12-21T12:27:59.511Z,98557.00
2018-12-21T12:30:29.027Z,98547.00
2018-12-21T12:32:58.527Z,98543.00
2018-12-21T12:35:28.261Z,98526.00
2018-12-21T12:37:57.967Z,98527.00
2018-12-21T12:40:27.741Z,98509.00
2018-12-21T12:42:57.290Z,98500.00
2018-12-21T12:45:26.929Z,98497.00
2018-12-21T12:47:57.318Z,98493.00
2018-12-21T12:50:27.320Z,98475.00
2018-12-21T12:52:57.840Z,98467.00
2018-12-21T12:55:27.980Z,98463.00
2018-12-21T12:57:59.678Z,98461.00
2018-12-21T13:00:29.915Z,98446.00
2018-12-21T13:02:59.643Z,98420.00
2018-12-21T13:05:29.290Z,98435.00
2018-12-21T13:08:00.340Z,98431.00
2018-12-21T13:10:30.105Z,98422.00
2018-12-21T13:13:00.761Z,98403.00
2018-12-21T13:15:30.546Z,98395.00
2018-12-21T13:18:00.747Z,98401.00
2018-12-21T13:20:31.363Z,98389.00
2018-12-21T13:23:01.306Z,98383.00
2018-12-21T13:25:31.671Z,98369.00
2018-12-21T13:28:02.532Z,98371.00
2018-12-21T13:30:32.072Z,98368.00
2018-12-21T13:33:01.691Z,98368.00
2018-12-21T13:35:31.378Z,98357.00
2018-12-21T13:38:00.910Z,98345.00
2018-12-21T13:40:30.575Z,98348.00
2018-12-21T13:43:00.111Z,98339.00
2018-12-21T13:45:30.772Z,98343.00
2018-12-21T13:48:00.561Z,98329.00
2018-12-21T13:50:31.229Z,98320.00
2018-12-21T13:53:00.915Z,98321.00
2018-12-21T13:55:31.200Z,98310.00
2018-12-21T13:58:01.465Z,98313.00
2018-12-21T14:00:32.400Z,98317.00
2018-12-21T14:03:02.105Z,98311.00
2018-12-21T14:05:31.632Z,98307.00
2018-12-21T14:08:02.354Z,98292.00
2018-12-21T14:10:32.018Z,98300.00
2018-12-21T14:13:01.992Z,98292.00
2018-12-21T14:15:31.643Z,98287.00
2018-12-21T14:18:02.192Z,98278.00
2018-12-21T14:20:31.882Z,98267.00
2018-12-21T14:23:01.559Z,98257.00
2018-12-21T14:25:31.217Z,98253.00
2018-12-21T14:28:01.055Z,98253.00
2018-12-21T14:30:30.848Z,98235.00
2018-12-21T14:33:00.749Z,98237.00
2018-12-21T14:35:30.408Z,98231.00
2018-12-21T14:37:59.964Z,98225.00
2018-12-21T14:40:29.664Z,98214.00
2018-12-21T14:42:59.723Z,98218.00
2018-12-21T14:45:29.453Z,98209.00
2018-12-21T14:47:59.696Z,98211.00
2018-12-21T14:50:29.342Z,98211.00
2018-12-21T14:52:59.123Z,98198.00
2018-12-21T14:55:37.284Z,98216.00
2018-12-21T14:58:00.440Z,98200.00
2018-12-21T15:00:30.323Z,98211.00
2018-12-21T15:02:59.913Z,98204.00
2018-12-21T15:05:29.651Z,98210.00
2018-12-21T15:07:59.981Z,98204.00
2018-12-21T15:10:30.986Z,98183.00
2018-12-21T15:13:00.719Z,98175.00
2018-12-21T15:15:31.791Z,98174.00
2018-12-21T15:18:01.405Z,98171.00
2018-12-21T15:20:31.744Z,98190.00
2018-12-21T15:23:01.454Z,98176.00
2018-12-21T15:25:31.866Z,98176.00
2018-12-21T15:28:01.661Z,98167.00
2018-12-21T15:30:32.027Z,98162.00
2018-12-21T15:33:02.030Z,98165.00
2018-12-21T15:35:31.621Z,98164.00
2018-12-21T15:38:02.265Z,98171.00
2018-12-21T15:40:33.076Z,98157.00
2018-12-21T15:43:03.851Z,98161.00
2018-12-21T15:45:35.826Z,98170.00
2018-12-21T15:48:05.786Z,98159.00
2018-12-21T15:50:40.695Z,98164.00
2018-12-21T15:53:13.852Z,98170.00
2018-12-21T15:55:54.742Z,98165.00
2018-12-21T15:58:19.255Z,98158.00
2018-12-21T16:00:49.188Z,98158.00
2018-12-21T16:03:20.865Z,98162.00
2018-12-21T16:05:54.395Z,98164.00
2018-12-21T16:08:24.228Z,98162.00
2018-12-21T16:10:53.897Z,98138.00
2018-12-21T16:13:23.577Z,98153.00
2018-12-21T16:15:54.385Z,98145.00
2018-12-21T16:18:24.757Z,98150.00
2018-12-21T16:20:54.699Z,98147.00
2018-12-21T16:23:24.471Z,98147.00
2018-12-21T16:25:54.406Z,98141.00
2018-12-21T16:28:24.347Z,98138.00
2018-12-21T16:30:54.027Z,98146.00
2018-12-21T16:33:23.873Z,98140.00
2018-12-21T16:35:53.751Z,98118.00
2018-12-21T16:38:23.623Z,98125.00
2018-12-21T16:40:54.668Z,98119.00
2018-12-21T16:43:28.949Z,98138.00
2018-12-21T16:45:58.980Z,98129.00
2018-12-21T16:48:30.688Z,98121.00
2018-12-21T16:51:00.538Z,98123.00
2018-12-21T16:53:31.134Z,98138.00
2018-12-21T16:56:01.468Z,98129.00
2018-12-21T16:58:32.499Z,98119.00
2018-12-21T17:01:03.568Z,98130.00
2018-12-21T17:03:33.344Z,98141.00
2018-12-21T17:06:03.196Z,98130.00
2018-12-21T17:08:33.942Z,98138.00
2018-12-21T17:11:03.906Z,98127.00
2018-12-21T17:13:34.401Z,98118.00
2018-12-21T17:16:05.603Z,98127.00
2018-12-21T17:18:35.637Z,98130.00
2018-12-21T17:21:05.307Z,98120.00
2018-12-21T17:23:36.095Z,98127.00
2018-12-21T17:26:06.280Z,98130.00
2018-12-21T17:28:38.181Z,98151.00
2018-12-21T17:31:08.432Z,98165.00
2018-12-21T17:33:39.124Z,98148.00
2018-12-21T17:36:09.051Z,98132.00
2018-12-21T17:38:43.485Z,98144.00
2018-12-21T17:41:13.240Z,98151.00
2018-12-21T17:43:42.933Z,98146.00
2018-12-21T17:46:12.751Z,98140.00
2018-12-21T17:48:42.546Z,98132.00
2018-12-21T17:51:17.748Z,98121.00
2018-12-21T17:53:48.545Z,98135.00
2018-12-21T17:56:18.275Z,98136.00
2018-12-21T17:58:47.872Z,98139.00
2018-12-21T18:01:17.879Z,98141.00
2018-12-21T18:04:54.618Z,98147.00
2018-12-21T18:07:24.478Z,98147.00
2018-12-21T18:09:54.602Z,98161.00
2018-12-21T18:12:24.307Z,98158.00
2018-12-21T18:14:57.116Z,98143.00
2018-12-21T18:17:27.764Z,98156.00
2018-12-21T18:19:58.135Z,98140.00
2018-12-21T18:22:27.933Z,98157.00
2018-12-21T18:25:03.939Z,98156.00
2018-12-21T18:27:36.877Z,98167.00
2018-12-21T18:30:15.860Z,98161.00
2018-12-21T18:32:45.653Z,98166.00
2018-12-21T18:35:19.712Z,98166.00
2018-12-21T18:37:58.258Z,98157.00
2018-12-21T18:40:29.897Z,98158.00
2018-12-21T18:42:59.422Z,98165.00
2018-12-21T18:45:29.065Z,98159.00
2018-12-21T18:47:58.591Z,98141.00
2018-12-21T18:50:29.555Z,98144.00
2018-12-21T18:52:59.122Z,98130.00
2018-12-21T18:55:28.631Z,98138.00
2018-12-21T18:57:58.992Z,98137.00
2018-12-21T19:00:28.514Z,98136.00
2018-12-21T19:02:58.049Z,98137.00
2018-12-21T19:05:27.593Z,98138.00
2018-12-21T19:07:57.100Z,98146.00
2018-12-21T19:10:26.666Z,98144.00
2018-12-21T19:12:56.384Z,98155.00
2018-12-21T19:15:26.061Z,98146.00
2018-12-21T19:17:55.755Z,98150.00
2018-12-21T19:20:25.385Z,98149.00
2018-12-21T19:22:55.235Z,98155.00
2018-12-21T19:25:24.829Z,98157.00
2018-12-21T19:27:54.911Z,98160.00
2018-12-21T19:30:25.284Z,98162.00
2018-12-21T19:32:55.121Z,98166.00
2018-12-21T19:35:27.845Z,98166.00
2018-12-21T19:37:56.679Z,98156.00
2018-12-21T19:40:26.338Z,98152.00
2018-12-21T19:42:55.948Z,98155.00
2018-12-21T19:45:25.533Z,98164.00
2018-12-21T19:47:55.253Z,98165.00
2018-12-21T19:50:24.769Z,98164.00
2018-12-21T19:52:54.321Z,98164.00
2018-12-21T19:55:43.569Z,98172.00
2018-12-21T19:58:13.426Z,98175.00
2018-12-21T20:00:43.119Z,98169.00
2018-12-21T20:03:12.947Z,98167.00
2018-12-21T20:05:42.726Z,98164.00
2018-12-21T20:08:12.454Z,98162.00
2018-12-21T20:10:42.104Z,98163.00
2018-12-21T20:13:12.388Z,98152.00
2018-12-21T20:15:42.242Z,98155.00
2018-12-21T20:18:11.897Z,98149.00
2018-12-21T20:20:41.593Z,98145.00
2018-12-21T20:23:11.965Z,98157.00
2018-12-21T20:25:41.809Z,98154.00
2018-12-21T20:28:11.651Z,98150.00
2018-12-21T20:30:42.108Z,98163.00
2018-12-21T20:33:11.877Z,98176.00
2018-12-21T20:35:41.706Z,98178.00
2018-12-21T20:38:11.800Z,98180.00
2018-12-21T20:40:41.605Z,98185.00
2018-12-21T20:43:11.337Z,98206.00
2018-12-21T20:45:42.236Z,98206.00
2018-12-21T20:48:12.324Z,98191.00
2018-12-21T20:50:41.868Z,98190.00
2018-12-21T20:53:13.587Z,98201.00
2018-12-21T20:55:43.594Z,98202.00
2018-12-21T20:58:43.251Z,98200.00
2018-12-21T21:01:12.989Z,98213.00
2018-12-21T21:03:42.716Z,98218.00
2018-12-21T21:06:12.840Z,98203.00
2018-12-21T21:08:42.632Z,98221.00
2018-12-21T21:11:12.196Z,98221.00
2018-12-21T21:13:41.653Z,98246.00
2018-12-21T21:16:11.468Z,98253.00
2018-12-21T21:18:42.735Z,98242.00
2018-12-21T21:21:13.042Z,98261.00
2018-12-21T21:23:42.541Z,98278.00
2018-12-21T21:26:12.238Z,98273.00
2018-12-21T21:28:41.758Z,98286.00
2018-12-21T21:31:11.569Z,98290.00
2018-12-21T21:33:44.001Z,98289.00
2018-12-21T21:36:16.817Z,98302.00
2018-12-21T21:38:47.319Z,98294.00
2018-12-21T21:41:17.629Z,98299.00
2018-12-21T21:43:47.392Z,98302.00
2018-12-21T21:46:17.358Z,98307.00
2018-12-21T21:48:47.353Z,98310.00
2018-12-21T21:51:16.975Z,98307.00
2018-12-21T21:53:47.519Z,98307.00
2018-12-21T21:56:17.988Z,98311.00
2018-12-21T21:58:47.789Z,98301.00
2018-12-21T22:01:17.651Z,98315.00
2018-12-21T22:03:47.355Z,98310.00
2018-12-21T22:06:17.535Z,98316.00
2018-12-21T22:08:47.465Z,98318.00
2018-12-21T22:11:17.942Z,98317.00
2018-12-21T22:13:48.241Z,98306.00
2018-12-21T22:16:17.964Z,98308.00
2018-12-21T22:18:47.906Z,98305.00
2018-12-21T22:21:17.742Z,98314.00
2018-12-21T22:23:48.145Z,98316.00
2018-12-21T22:26:17.739Z,98316.00
2018-12-21T22:28:47.545Z,98325.00
2018-12-21T22:31:17.387Z,98325.00
2018-12-21T22:33:47.485Z,98331.00
2018-12-21T22:36:17.347Z,98324.00
2018-12-21T22:38:48.009Z,98334.00
2018-12-21T22:41:17.519Z,98343.00
2018-12-21T22:43:47.507Z,98337.00
2018-12-21T22:46:17.165Z,98341.00
2018-12-21T22:48:47.687Z,98338.00
2018-12-21T22:51:17.359Z,98334.00
2018-12-21T22:53:49.018Z,98339.00
2018-12-21T22:56:20.125Z,98331.00
2018-12-21T22:58:50.028Z,98344.00
2018-12-21T23:01:19.828Z,98358.00
2018-12-21T23:03:49.629Z,98348.00
2018-12-21T23:06:20.103Z,98353.00
2018-12-21T23:08:49.645Z,98365.00
2018-12-21T23:11:19.992Z,98352.00
2018-12-21T23:13:50.251Z,98368.00
2018-12-21T23:16:20.109Z,98362.00
2018-12-21T23:18:49.959Z,98365.00
2018-12-21T23:21:20.958Z,98363.00
2018-12-21T23:23:50.796Z,98363.00
2018-12-21T23:26:20.674Z,98374.00
2018-12-21T23:28:51.305Z,98376.00
2018-12-21T23:31:21.209Z,98379.00
2018-12-21T23:33:51.557Z,98368.00
2018-12-21T23:36:21.274Z,98370.00
2018-12-21T23:38:51.024Z,98369.00
2018-12-21T23:41:20.912Z,98354.00
2018-12-21T23:43:50.553Z,98363.00
2018-12-21T23:46:21.018Z,98341.00
2018-12-21T23:48:51.032Z,98345.00
2018-12-21T23:51:20.906Z,98357.00
2018-12-21T23:53:51.283Z,98358.00
2018-12-21T23:56:20.901Z,98344.00
2018-12-21T23:58:50.692Z,98359.00
